sensor_id;sensor_type;location;lat;lon;timestamp;P1;durP1;ratioP1;P2;durP2;ratioP2
17494;SDS011;8864;51.970;4.614;2022-12-01T00:01:07;16.33;;;8.50;;
17494;SDS011;8864;51.970;4.614;2022-12-01T00:03:35;15.98;;;8.18;;
17494;SDS011;8864;51.970;4.614;2022-12-01T00:06:05;16.85;;;8.18;;
17494;SDS011;8864;51.970;4.614;2022-12-01T00:08:41;14.93;;;8.15;;
17494;SDS011;8864;51.970;4.614;2022-12-01T00:11:29;16.63;;;8.60;;
17494;SDS011;8864;51.970;4.614;2022-12-01T00:13:55;15.07;;;8.23;;
17494;SDS011;8864;51.970;4.614;2022-12-01T00:16:23;14.95;;;8.38;;
17494;SDS011;8864;51.970;4.614;2022-12-01T00:18:51;14.88;;;8.00;;
17494;SDS011;8864;51.970;4.614;2022-12-01T00:21:20;15.38;;;7.90;;
17494;SDS011;8864;51.970;4.614;2022-12-01T00:23:49;15.73;;;8.90;;
17494;SDS011;8864;51.970;4.614;2022-12-01T00:26:17;18.08;;;8.40;;
17494;SDS011;8864;51.970;4.614;2022-12-01T00:28:47;16.75;;;8.07;;
17494;SDS011;8864;51.970;4.614;2022-12-01T00:31:15;15.52;;;8.45;;
17494;SDS011;8864;51.970;4.614;2022-12-01T00:33:43;16.77;;;7.95;;
17494;SDS011;8864;51.970;4.614;2022-12-01T00:36:10;15.82;;;8.32;;
17494;SDS011;8864;51.970;4.614;2022-12-01T00:38:38;16.88;;;8.23;;
17494;SDS011;8864;51.970;4.614;2022-12-01T00:41:08;15.02;;;7.97;;
17494;SDS011;8864;51.970;4.614;2022-12-01T00:43:36;14.13;;;7.80;;
17494;SDS011;8864;51.970;4.614;2022-12-01T00:46:04;14.27;;;8.18;;
17494;SDS011;8864;51.970;4.614;2022-12-01T00:48:31;16.73;;;8.18;;
17494;SDS011;8864;51.970;4.614;2022-12-01T00:50:59;13.55;;;7.35;;
17494;SDS011;8864;51.970;4.614;2022-12-01T00:53:27;17.33;;;8.30;;
17494;SDS011;8864;51.970;4.614;2022-12-01T00:55:56;14.95;;;7.80;;
17494;SDS011;8864;51.970;4.614;2022-12-01T00:58:26;16.50;;;8.07;;
17494;SDS011;8864;51.970;4.614;2022-12-01T01:00:55;13.07;;;7.40;;
17494;SDS011;8864;51.970;4.614;2022-12-01T01:03:24;15.05;;;8.02;;
17494;SDS011;8864;51.970;4.614;2022-12-01T01:05:50;14.07;;;7.43;;
17494;SDS011;8864;51.970;4.614;2022-12-01T01:08:17;15.30;;;7.80;;
17494;SDS011;8864;51.970;4.614;2022-12-01T01:10:45;16.90;;;7.63;;
17494;SDS011;8864;51.970;4.614;2022-12-01T01:13:17;15.93;;;8.13;;
17494;SDS011;8864;51.970;4.614;2022-12-01T01:15:44;13.25;;;7.13;;
17494;SDS011;8864;51.970;4.614;2022-12-01T01:18:11;15.32;;;7.50;;
17494;SDS011;8864;51.970;4.614;2022-12-01T01:20:53;13.88;;;7.80;;
17494;SDS011;8864;51.970;4.614;2022-12-01T01:23:20;18.48;;;8.20;;
17494;SDS011;8864;51.970;4.614;2022-12-01T01:25:48;18.42;;;8.15;;
17494;SDS011;8864;51.970;4.614;2022-12-01T01:28:18;14.88;;;8.05;;
17494;SDS011;8864;51.970;4.614;2022-12-01T01:30:45;17.25;;;8.85;;
17494;SDS011;8864;51.970;4.614;2022-12-01T01:33:14;17.58;;;8.05;;
17494;SDS011;8864;51.970;4.614;2022-12-01T01:35:43;15.27;;;8.07;;
17494;SDS011;8864;51.970;4.614;2022-12-01T01:38:10;14.88;;;7.82;;
17494;SDS011;8864;51.970;4.614;2022-12-01T01:40:41;17.65;;;7.88;;
17494;SDS011;8864;51.970;4.614;2022-12-01T01:43:09;15.82;;;7.55;;
17494;SDS011;8864;51.970;4.614;2022-12-01T01:45:42;15.50;;;7.57;;
17494;SDS011;8864;51.970;4.614;2022-12-01T01:48:10;14.13;;;7.28;;
17494;SDS011;8864;51.970;4.614;2022-12-01T01:50:39;15.30;;;7.28;;
17494;SDS011;8864;51.970;4.614;2022-12-01T01:53:07;15.68;;;7.00;;
17494;SDS011;8864;51.970;4.614;2022-12-01T01:55:37;14.27;;;7.45;;
17494;SDS011;8864;51.970;4.614;2022-12-01T01:58:06;13.65;;;7.00;;
17494;SDS011;8864;51.970;4.614;2022-12-01T02:00:36;14.45;;;7.38;;
17494;SDS011;8864;51.970;4.614;2022-12-01T02:03:08;14.32;;;7.22;;
17494;SDS011;8864;51.970;4.614;2022-12-01T02:05:38;14.27;;;7.55;;
17494;SDS011;8864;51.970;4.614;2022-12-01T02:08:08;15.70;;;7.80;;
17494;SDS011;8864;51.970;4.614;2022-12-01T02:10:43;14.77;;;6.88;;
17494;SDS011;8864;51.970;4.614;2022-12-01T02:13:22;14.23;;;7.05;;
17494;SDS011;8864;51.970;4.614;2022-12-01T02:15:55;17.65;;;7.82;;
17494;SDS011;8864;51.970;4.614;2022-12-01T02:18:32;15.43;;;7.97;;
17494;SDS011;8864;51.970;4.614;2022-12-01T02:21:22;14.00;;;7.43;;
17494;SDS011;8864;51.970;4.614;2022-12-01T02:26:57;15.50;;;7.43;;
17494;SDS011;8864;51.970;4.614;2022-12-01T02:29:35;14.82;;;7.50;;
17494;SDS011;8864;51.970;4.614;2022-12-01T02:32:28;20.58;;;7.68;;
17494;SDS011;8864;51.970;4.614;2022-12-01T02:35:02;15.02;;;7.93;;
17494;SDS011;8864;51.970;4.614;2022-12-01T02:37:39;16.90;;;7.85;;
17494;SDS011;8864;51.970;4.614;2022-12-01T02:40:12;14.43;;;8.02;;
17494;SDS011;8864;51.970;4.614;2022-12-01T02:42:46;16.20;;;7.72;;
17494;SDS011;8864;51.970;4.614;2022-12-01T02:45:34;16.17;;;8.13;;
17494;SDS011;8864;51.970;4.614;2022-12-01T02:48:16;17.60;;;8.45;;
17494;SDS011;8864;51.970;4.614;2022-12-01T02:50:48;16.95;;;8.55;;
17494;SDS011;8864;51.970;4.614;2022-12-01T02:53:16;17.70;;;8.48;;
17494;SDS011;8864;51.970;4.614;2022-12-01T02:55:46;15.35;;;7.53;;
17494;SDS011;8864;51.970;4.614;2022-12-01T02:58:15;14.85;;;8.25;;
17494;SDS011;8864;51.970;4.614;2022-12-01T03:00:55;16.38;;;8.70;;
17494;SDS011;8864;51.970;4.614;2022-12-01T03:03:37;16.88;;;8.13;;
17494;SDS011;8864;51.970;4.614;2022-12-01T03:06:13;16.48;;;8.27;;
17494;SDS011;8864;51.970;4.614;2022-12-01T03:08:49;17.38;;;9.20;;
17494;SDS011;8864;51.970;4.614;2022-12-01T03:11:22;18.67;;;8.10;;
17494;SDS011;8864;51.970;4.614;2022-12-01T03:14:02;17.85;;;8.60;;
17494;SDS011;8864;51.970;4.614;2022-12-01T03:16:45;18.67;;;8.32;;
17494;SDS011;8864;51.970;4.614;2022-12-01T03:19:18;21.02;;;9.55;;
17494;SDS011;8864;51.970;4.614;2022-12-01T03:21:53;20.95;;;9.25;;
17494;SDS011;8864;51.970;4.614;2022-12-01T03:24:24;17.58;;;8.85;;
17494;SDS011;8864;51.970;4.614;2022-12-01T03:26:54;17.02;;;8.98;;
17494;SDS011;8864;51.970;4.614;2022-12-01T03:29:24;19.38;;;9.10;;
17494;SDS011;8864;51.970;4.614;2022-12-01T03:31:55;17.80;;;8.48;;
17494;SDS011;8864;51.970;4.614;2022-12-01T03:34:28;21.63;;;9.38;;
17494;SDS011;8864;51.970;4.614;2022-12-01T03:37:01;19.92;;;9.50;;
17494;SDS011;8864;51.970;4.614;2022-12-01T03:39:33;19.85;;;9.23;;
17494;SDS011;8864;51.970;4.614;2022-12-01T03:42:04;20.30;;;9.20;;
17494;SDS011;8864;51.970;4.614;2022-12-01T03:44:35;18.63;;;8.63;;
17494;SDS011;8864;51.970;4.614;2022-12-01T03:47:09;16.55;;;8.20;;
17494;SDS011;8864;51.970;4.614;2022-12-01T03:49:41;20.00;;;9.48;;
17494;SDS011;8864;51.970;4.614;2022-12-01T03:52:10;19.38;;;9.20;;
17494;SDS011;8864;51.970;4.614;2022-12-01T03:54:45;18.60;;;9.13;;
17494;SDS011;8864;51.970;4.614;2022-12-01T03:57:23;20.05;;;9.43;;
17494;SDS011;8864;51.970;4.614;2022-12-01T03:59:52;19.63;;;10.13;;
17494;SDS011;8864;51.970;4.614;2022-12-01T04:02:20;19.00;;;9.10;;
17494;SDS011;8864;51.970;4.614;2022-12-01T04:04:52;20.95;;;9.75;;
17494;SDS011;8864;51.970;4.614;2022-12-01T04:07:21;19.55;;;8.98;;
17494;SDS011;8864;51.970;4.614;2022-12-01T04:09:48;18.92;;;9.10;;
17494;SDS011;8864;51.970;4.614;2022-12-01T04:12:19;20.13;;;9.02;;
17494;SDS011;8864;51.970;4.614;2022-12-01T04:14:54;20.23;;;9.20;;
17494;SDS011;8864;51.970;4.614;2022-12-01T04:17:21;22.95;;;10.00;;
17494;SDS011;8864;51.970;4.614;2022-12-01T04:19:48;20.40;;;9.68;;
17494;SDS011;8864;51.970;4.614;2022-12-01T04:22:16;18.38;;;8.93;;
17494;SDS011;8864;51.970;4.614;2022-12-01T04:24:43;16.50;;;8.57;;
17494;SDS011;8864;51.970;4.614;2022-12-01T04:27:10;22.77;;;9.48;;
17494;SDS011;8864;51.970;4.614;2022-12-01T04:29:37;18.75;;;9.23;;
17494;SDS011;8864;51.970;4.614;2022-12-01T04:32:06;18.73;;;9.68;;
17494;SDS011;8864;51.970;4.614;2022-12-01T04:34:35;21.80;;;9.65;;
17494;SDS011;8864;51.970;4.614;2022-12-01T04:37:02;17.48;;;8.80;;
17494;SDS011;8864;51.970;4.614;2022-12-01T04:39:33;19.13;;;9.40;;
17494;SDS011;8864;51.970;4.614;2022-12-01T04:42:00;19.52;;;9.48;;
17494;SDS011;8864;51.970;4.614;2022-12-01T04:44:27;21.30;;;9.55;;
17494;SDS011;8864;51.970;4.614;2022-12-01T04:46:54;18.33;;;9.30;;
17494;SDS011;8864;51.970;4.614;2022-12-01T04:49:21;19.25;;;9.52;;
17494;SDS011;8864;51.970;4.614;2022-12-01T04:51:48;22.50;;;9.80;;
17494;SDS011;8864;51.970;4.614;2022-12-01T04:54:15;21.88;;;9.35;;
17494;SDS011;8864;51.970;4.614;2022-12-01T04:56:44;21.33;;;9.90;;
17494;SDS011;8864;51.970;4.614;2022-12-01T04:59:11;21.55;;;10.13;;
17494;SDS011;8864;51.970;4.614;2022-12-01T05:01:38;21.70;;;9.88;;
17494;SDS011;8864;51.970;4.614;2022-12-01T05:04:09;21.20;;;9.25;;
17494;SDS011;8864;51.970;4.614;2022-12-01T05:06:37;18.33;;;9.30;;
17494;SDS011;8864;51.970;4.614;2022-12-01T05:09:05;20.50;;;9.90;;
17494;SDS011;8864;51.970;4.614;2022-12-01T05:11:32;22.60;;;10.02;;
17494;SDS011;8864;51.970;4.614;2022-12-01T05:14:02;19.60;;;8.98;;
17494;SDS011;8864;51.970;4.614;2022-12-01T05:16:29;25.90;;;9.85;;
17494;SDS011;8864;51.970;4.614;2022-12-01T05:18:58;19.23;;;9.82;;
17494;SDS011;8864;51.970;4.614;2022-12-01T05:21:44;19.52;;;8.73;;
17494;SDS011;8864;51.970;4.614;2022-12-01T05:24:13;23.67;;;10.38;;
17494;SDS011;8864;51.970;4.614;2022-12-01T05:26:42;21.08;;;9.75;;
17494;SDS011;8864;51.970;4.614;2022-12-01T05:29:11;20.35;;;9.23;;
17494;SDS011;8864;51.970;4.614;2022-12-01T05:31:38;19.90;;;9.88;;
17494;SDS011;8864;51.970;4.614;2022-12-01T05:34:05;21.77;;;9.52;;
17494;SDS011;8864;51.970;4.614;2022-12-01T05:36:33;21.85;;;9.30;;
17494;SDS011;8864;51.970;4.614;2022-12-01T05:39:00;20.08;;;9.32;;
17494;SDS011;8864;51.970;4.614;2022-12-01T05:41:27;20.17;;;9.73;;
17494;SDS011;8864;51.970;4.614;2022-12-01T05:43:56;21.30;;;10.07;;
17494;SDS011;8864;51.970;4.614;2022-12-01T05:46:30;20.70;;;9.65;;
17494;SDS011;8864;51.970;4.614;2022-12-01T05:48:57;22.20;;;10.77;;
17494;SDS011;8864;51.970;4.614;2022-12-01T05:51:24;21.75;;;9.75;;
17494;SDS011;8864;51.970;4.614;2022-12-01T05:53:51;20.15;;;10.23;;
17494;SDS011;8864;51.970;4.614;2022-12-01T05:56:18;20.77;;;9.75;;
17494;SDS011;8864;51.970;4.614;2022-12-01T05:58:45;20.83;;;10.18;;
17494;SDS011;8864;51.970;4.614;2022-12-01T06:01:12;21.08;;;9.65;;
17494;SDS011;8864;51.970;4.614;2022-12-01T06:03:42;20.45;;;9.70;;
17494;SDS011;8864;51.970;4.614;2022-12-01T06:06:08;19.58;;;9.63;;
17494;SDS011;8864;51.970;4.614;2022-12-01T06:08:35;20.30;;;9.82;;
17494;SDS011;8864;51.970;4.614;2022-12-01T06:11:05;18.30;;;8.98;;
17494;SDS011;8864;51.970;4.614;2022-12-01T06:13:32;20.98;;;10.50;;
17494;SDS011;8864;51.970;4.614;2022-12-01T06:16:00;21.83;;;9.18;;
17494;SDS011;8864;51.970;4.614;2022-12-01T06:18:29;19.50;;;9.65;;
17494;SDS011;8864;51.970;4.614;2022-12-01T06:20:59;21.85;;;9.98;;
17494;SDS011;8864;51.970;4.614;2022-12-01T06:23:28;19.60;;;9.73;;
17494;SDS011;8864;51.970;4.614;2022-12-01T06:25:55;20.63;;;9.35;;
17494;SDS011;8864;51.970;4.614;2022-12-01T06:28:23;20.75;;;9.73;;
17494;SDS011;8864;51.970;4.614;2022-12-01T06:30:51;18.83;;;8.98;;
17494;SDS011;8864;51.970;4.614;2022-12-01T06:33:18;22.88;;;10.40;;
17494;SDS011;8864;51.970;4.614;2022-12-01T06:35:46;21.67;;;9.88;;
17494;SDS011;8864;51.970;4.614;2022-12-01T06:38:14;21.85;;;10.23;;
17494;SDS011;8864;51.970;4.614;2022-12-01T06:40:42;24.42;;;10.18;;
17494;SDS011;8864;51.970;4.614;2022-12-01T06:43:10;21.48;;;9.95;;
17494;SDS011;8864;51.970;4.614;2022-12-01T06:45:36;22.20;;;9.75;;
17494;SDS011;8864;51.970;4.614;2022-12-01T06:48:03;23.08;;;10.23;;
17494;SDS011;8864;51.970;4.614;2022-12-01T06:50:30;20.13;;;9.52;;
17494;SDS011;8864;51.970;4.614;2022-12-01T06:52:57;22.10;;;9.77;;
17494;SDS011;8864;51.970;4.614;2022-12-01T06:55:26;25.83;;;10.50;;
17494;SDS011;8864;51.970;4.614;2022-12-01T07:07:53;23.92;;;10.15;;
17494;SDS011;8864;51.970;4.614;2022-12-01T07:20:31;21.13;;;9.05;;
17494;SDS011;8864;51.970;4.614;2022-12-01T07:23:45;20.77;;;9.63;;
17494;SDS011;8864;51.970;4.614;2022-12-01T07:29:58;21.38;;;10.00;;
17494;SDS011;8864;51.970;4.614;2022-12-01T07:32:41;22.60;;;9.05;;
17494;SDS011;8864;51.970;4.614;2022-12-01T07:38:43;26.02;;;10.05;;
17494;SDS011;8864;51.970;4.614;2022-12-01T07:41:11;22.48;;;10.10;;
17494;SDS011;8864;51.970;4.614;2022-12-01T07:43:39;18.15;;;8.80;;
17494;SDS011;8864;51.970;4.614;2022-12-01T07:46:08;19.52;;;9.27;;
17494;SDS011;8864;51.970;4.614;2022-12-01T07:48:37;21.85;;;9.65;;
17494;SDS011;8864;51.970;4.614;2022-12-01T07:51:05;18.05;;;8.80;;
17494;SDS011;8864;51.970;4.614;2022-12-01T07:53:33;18.48;;;9.00;;
17494;SDS011;8864;51.970;4.614;2022-12-01T07:56:02;18.40;;;9.00;;
17494;SDS011;8864;51.970;4.614;2022-12-01T07:58:30;18.98;;;9.38;;
17494;SDS011;8864;51.970;4.614;2022-12-01T08:00:57;20.05;;;9.18;;
17494;SDS011;8864;51.970;4.614;2022-12-01T08:03:24;18.83;;;10.02;;
17494;SDS011;8864;51.970;4.614;2022-12-01T08:05:55;18.70;;;9.20;;
17494;SDS011;8864;51.970;4.614;2022-12-01T08:08:22;17.67;;;9.35;;
17494;SDS011;8864;51.970;4.614;2022-12-01T08:10:49;21.27;;;10.30;;
17494;SDS011;8864;51.970;4.614;2022-12-01T08:13:18;21.13;;;9.75;;
17494;SDS011;8864;51.970;4.614;2022-12-01T08:15:45;24.20;;;10.05;;
17494;SDS011;8864;51.970;4.614;2022-12-01T08:18:12;23.10;;;10.27;;
17494;SDS011;8864;51.970;4.614;2022-12-01T08:20:39;21.33;;;10.20;;
17494;SDS011;8864;51.970;4.614;2022-12-01T08:23:06;25.15;;;11.45;;
17494;SDS011;8864;51.970;4.614;2022-12-01T08:25:33;32.15;;;11.88;;
17494;SDS011;8864;51.970;4.614;2022-12-01T08:28:00;26.23;;;11.90;;
17494;SDS011;8864;51.970;4.614;2022-12-01T08:30:29;27.42;;;11.60;;
17494;SDS011;8864;51.970;4.614;2022-12-01T08:32:56;26.73;;;11.95;;
17494;SDS011;8864;51.970;4.614;2022-12-01T08:35:23;37.47;;;12.35;;
17494;SDS011;8864;51.970;4.614;2022-12-01T08:37:50;27.00;;;11.80;;
17494;SDS011;8864;51.970;4.614;2022-12-01T08:40:18;31.80;;;12.48;;
17494;SDS011;8864;51.970;4.614;2022-12-01T08:42:45;31.35;;;12.82;;
17494;SDS011;8864;51.970;4.614;2022-12-01T08:45:13;26.02;;;12.57;;
17494;SDS011;8864;51.970;4.614;2022-12-01T08:47:41;28.40;;;12.38;;
17494;SDS011;8864;51.970;4.614;2022-12-01T08:50:08;32.05;;;13.82;;
17494;SDS011;8864;51.970;4.614;2022-12-01T08:52:36;26.80;;;11.68;;
17494;SDS011;8864;51.970;4.614;2022-12-01T08:55:03;33.10;;;13.57;;
17494;SDS011;8864;51.970;4.614;2022-12-01T08:57:31;35.83;;;14.23;;
17494;SDS011;8864;51.970;4.614;2022-12-01T08:59:58;37.50;;;13.75;;
17494;SDS011;8864;51.970;4.614;2022-12-01T09:02:25;59.53;;;13.70;;
17494;SDS011;8864;51.970;4.614;2022-12-01T09:04:53;40.42;;;14.73;;
17494;SDS011;8864;51.970;4.614;2022-12-01T09:07:20;44.03;;;15.23;;
17494;SDS011;8864;51.970;4.614;2022-12-01T09:09:47;35.30;;;13.98;;
17494;SDS011;8864;51.970;4.614;2022-12-01T09:12:14;43.05;;;15.55;;
17494;SDS011;8864;51.970;4.614;2022-12-01T09:14:42;45.35;;;15.18;;
17494;SDS011;8864;51.970;4.614;2022-12-01T09:17:12;41.70;;;15.65;;
17494;SDS011;8864;51.970;4.614;2022-12-01T09:19:39;40.72;;;14.65;;
17494;SDS011;8864;51.970;4.614;2022-12-01T09:22:07;39.17;;;14.25;;
17494;SDS011;8864;51.970;4.614;2022-12-01T09:24:34;47.55;;;14.05;;
17494;SDS011;8864;51.970;4.614;2022-12-01T09:27:02;35.80;;;14.00;;
17494;SDS011;8864;51.970;4.614;2022-12-01T09:29:29;36.58;;;14.90;;
17494;SDS011;8864;51.970;4.614;2022-12-01T09:31:57;37.95;;;15.20;;
17494;SDS011;8864;51.970;4.614;2022-12-01T09:34:25;32.80;;;13.38;;
17494;SDS011;8864;51.970;4.614;2022-12-01T09:36:53;34.50;;;13.48;;
17494;SDS011;8864;51.970;4.614;2022-12-01T09:39:23;33.45;;;12.65;;
17494;SDS011;8864;51.970;4.614;2022-12-01T09:41:51;29.75;;;12.07;;
17494;SDS011;8864;51.970;4.614;2022-12-01T09:44:29;33.17;;;12.13;;
17494;SDS011;8864;51.970;4.614;2022-12-01T09:47:03;31.98;;;12.05;;
17494;SDS011;8864;51.970;4.614;2022-12-01T09:49:38;28.90;;;10.50;;
17494;SDS011;8864;51.970;4.614;2022-12-01T09:52:11;29.23;;;10.35;;
17494;SDS011;8864;51.970;4.614;2022-12-01T09:54:42;29.77;;;11.23;;
17494;SDS011;8864;51.970;4.614;2022-12-01T09:57:13;26.70;;;10.65;;
17494;SDS011;8864;51.970;4.614;2022-12-01T09:59:42;25.33;;;10.52;;
17494;SDS011;8864;51.970;4.614;2022-12-01T10:02:23;21.27;;;9.63;;
17494;SDS011;8864;51.970;4.614;2022-12-01T10:04:55;21.98;;;9.43;;
17494;SDS011;8864;51.970;4.614;2022-12-01T10:07:27;22.38;;;9.63;;
17494;SDS011;8864;51.970;4.614;2022-12-01T10:10:00;23.80;;;9.90;;
17494;SDS011;8864;51.970;4.614;2022-12-01T10:12:32;23.50;;;9.18;;
17494;SDS011;8864;51.970;4.614;2022-12-01T10:15:12;20.75;;;9.75;;
17494;SDS011;8864;51.970;4.614;2022-12-01T10:17:58;25.92;;;9.27;;
17494;SDS011;8864;51.970;4.614;2022-12-01T10:20:39;21.52;;;9.45;;
17494;SDS011;8864;51.970;4.614;2022-12-01T10:23:14;20.35;;;9.25;;
17494;SDS011;8864;51.970;4.614;2022-12-01T10:25:53;22.48;;;8.60;;
17494;SDS011;8864;51.970;4.614;2022-12-01T10:31:30;15.98;;;8.30;;
17494;SDS011;8864;51.970;4.614;2022-12-01T10:34:05;22.30;;;8.73;;
17494;SDS011;8864;51.970;4.614;2022-12-01T10:36:36;15.85;;;7.97;;
17494;SDS011;8864;51.970;4.614;2022-12-01T10:39:03;20.60;;;7.78;;
17494;SDS011;8864;51.970;4.614;2022-12-01T10:41:34;16.02;;;7.82;;
17494;SDS011;8864;51.970;4.614;2022-12-01T10:44:03;17.55;;;7.85;;
17494;SDS011;8864;51.970;4.614;2022-12-01T10:46:34;17.55;;;7.68;;
17494;SDS011;8864;51.970;4.614;2022-12-01T10:49:07;17.27;;;7.57;;
17494;SDS011;8864;51.970;4.614;2022-12-01T10:51:46;17.80;;;8.00;;
17494;SDS011;8864;51.970;4.614;2022-12-01T10:54:15;15.18;;;7.43;;
17494;SDS011;8864;51.970;4.614;2022-12-01T10:56:44;14.10;;;7.93;;
17494;SDS011;8864;51.970;4.614;2022-12-01T10:59:20;19.15;;;7.72;;
17494;SDS011;8864;51.970;4.614;2022-12-01T11:01:50;16.52;;;7.15;;
17494;SDS011;8864;51.970;4.614;2022-12-01T11:04:20;14.23;;;7.07;;
17494;SDS011;8864;51.970;4.614;2022-12-01T11:06:58;15.98;;;7.45;;
17494;SDS011;8864;51.970;4.614;2022-12-01T11:09:27;18.17;;;8.27;;
17494;SDS011;8864;51.970;4.614;2022-12-01T11:11:57;16.40;;;7.22;;
17494;SDS011;8864;51.970;4.614;2022-12-01T11:14:28;14.20;;;6.95;;
17494;SDS011;8864;51.970;4.614;2022-12-01T11:17:13;15.50;;;7.40;;
17494;SDS011;8864;51.970;4.614;2022-12-01T11:19:41;14.18;;;7.47;;
17494;SDS011;8864;51.970;4.614;2022-12-01T11:22:17;15.23;;;7.07;;
17494;SDS011;8864;51.970;4.614;2022-12-01T11:24:54;13.10;;;6.63;;
17494;SDS011;8864;51.970;4.614;2022-12-01T11:27:26;13.10;;;7.03;;
17494;SDS011;8864;51.970;4.614;2022-12-01T11:29:56;13.05;;;6.68;;
17494;SDS011;8864;51.970;4.614;2022-12-01T11:32:27;12.32;;;6.43;;
17494;SDS011;8864;51.970;4.614;2022-12-01T11:34:55;15.60;;;6.32;;
17494;SDS011;8864;51.970;4.614;2022-12-01T11:37:26;13.52;;;6.80;;
17494;SDS011;8864;51.970;4.614;2022-12-01T11:40:02;14.98;;;7.00;;
17494;SDS011;8864;51.970;4.614;2022-12-01T11:42:33;13.93;;;6.60;;
17494;SDS011;8864;51.970;4.614;2022-12-01T11:45:04;13.63;;;6.28;;
17494;SDS011;8864;51.970;4.614;2022-12-01T11:47:33;14.38;;;6.65;;
17494;SDS011;8864;51.970;4.614;2022-12-01T11:50:01;12.30;;;5.72;;
17494;SDS011;8864;51.970;4.614;2022-12-01T11:52:31;14.63;;;7.18;;
17494;SDS011;8864;51.970;4.614;2022-12-01T11:55:01;12.43;;;5.97;;
17494;SDS011;8864;51.970;4.614;2022-12-01T11:57:47;10.90;;;6.03;;
17494;SDS011;8864;51.970;4.614;2022-12-01T12:00:17;11.30;;;5.43;;
17494;SDS011;8864;51.970;4.614;2022-12-01T12:02:51;13.35;;;6.57;;
17494;SDS011;8864;51.970;4.614;2022-12-01T12:05:48;13.52;;;6.20;;
17494;SDS011;8864;51.970;4.614;2022-12-01T12:08:26;14.30;;;6.43;;
17494;SDS011;8864;51.970;4.614;2022-12-01T12:11:07;11.15;;;6.20;;
17494;SDS011;8864;51.970;4.614;2022-12-01T12:13:45;9.55;;;5.53;;
17494;SDS011;8864;51.970;4.614;2022-12-01T12:16:33;11.60;;;6.50;;
17494;SDS011;8864;51.970;4.614;2022-12-01T12:19:14;12.02;;;5.88;;
17494;SDS011;8864;51.970;4.614;2022-12-01T12:21:59;11.43;;;5.88;;
17494;SDS011;8864;51.970;4.614;2022-12-01T12:24:38;10.20;;;5.43;;
17494;SDS011;8864;51.970;4.614;2022-12-01T12:27:13;12.65;;;6.22;;
17494;SDS011;8864;51.970;4.614;2022-12-01T12:29:52;12.52;;;5.85;;
17494;SDS011;8864;51.970;4.614;2022-12-01T12:32:35;11.60;;;6.00;;
17494;SDS011;8864;51.970;4.614;2022-12-01T12:35:18;11.32;;;6.43;;
17494;SDS011;8864;51.970;4.614;2022-12-01T12:37:58;12.15;;;5.80;;
17494;SDS011;8864;51.970;4.614;2022-12-01T12:40:37;10.77;;;5.75;;
17494;SDS011;8864;51.970;4.614;2022-12-01T12:43:18;10.82;;;5.60;;
17494;SDS011;8864;51.970;4.614;2022-12-01T12:45:51;13.15;;;6.20;;
17494;SDS011;8864;51.970;4.614;2022-12-01T12:48:27;14.90;;;5.50;;
17494;SDS011;8864;51.970;4.614;2022-12-01T12:51:11;13.23;;;6.70;;
17494;SDS011;8864;51.970;4.614;2022-12-01T12:53:44;12.00;;;6.15;;
17494;SDS011;8864;51.970;4.614;2022-12-01T12:56:16;15.48;;;7.30;;
17494;SDS011;8864;51.970;4.614;2022-12-01T12:58:51;13.68;;;7.20;;
17494;SDS011;8864;51.970;4.614;2022-12-01T13:01:23;13.30;;;6.95;;
17494;SDS011;8864;51.970;4.614;2022-12-01T13:03:54;13.52;;;7.40;;
17494;SDS011;8864;51.970;4.614;2022-12-01T13:06:25;16.27;;;7.68;;
17494;SDS011;8864;51.970;4.614;2022-12-01T13:08:58;15.95;;;7.78;;
17494;SDS011;8864;51.970;4.614;2022-12-01T13:11:28;13.30;;;7.28;;
17494;SDS011;8864;51.970;4.614;2022-12-01T13:13:59;14.85;;;6.85;;
17494;SDS011;8864;51.970;4.614;2022-12-01T13:16:33;13.52;;;7.10;;
17494;SDS011;8864;51.970;4.614;2022-12-01T13:19:04;13.77;;;6.82;;
17494;SDS011;8864;51.970;4.614;2022-12-01T13:21:38;14.85;;;6.82;;
17494;SDS011;8864;51.970;4.614;2022-12-01T13:24:08;11.50;;;6.40;;
17494;SDS011;8864;51.970;4.614;2022-12-01T13:26:37;13.90;;;7.00;;
17494;SDS011;8864;51.970;4.614;2022-12-01T13:29:06;11.50;;;5.85;;
17494;SDS011;8864;51.970;4.614;2022-12-01T13:31:44;12.45;;;6.28;;
17494;SDS011;8864;51.970;4.614;2022-12-01T13:34:17;12.32;;;6.18;;
17494;SDS011;8864;51.970;4.614;2022-12-01T13:36:48;11.82;;;6.05;;
17494;SDS011;8864;51.970;4.614;2022-12-01T13:39:17;12.32;;;6.32;;
17494;SDS011;8864;51.970;4.614;2022-12-01T13:41:45;12.80;;;6.90;;
17494;SDS011;8864;51.970;4.614;2022-12-01T13:44:24;12.23;;;6.40;;
17494;SDS011;8864;51.970;4.614;2022-12-01T13:46:57;13.07;;;6.72;;
17494;SDS011;8864;51.970;4.614;2022-12-01T13:49:38;13.13;;;6.40;;
17494;SDS011;8864;51.970;4.614;2022-12-01T13:52:24;14.95;;;6.70;;
17494;SDS011;8864;51.970;4.614;2022-12-01T13:58:16;10.77;;;6.10;;
17494;SDS011;8864;51.970;4.614;2022-12-01T14:00:48;13.85;;;6.50;;
17494;SDS011;8864;51.970;4.614;2022-12-01T14:06:19;16.27;;;7.05;;
17494;SDS011;8864;51.970;4.614;2022-12-01T14:08:52;13.32;;;6.07;;
17494;SDS011;8864;51.970;4.614;2022-12-01T14:11:24;12.80;;;6.50;;
17494;SDS011;8864;51.970;4.614;2022-12-01T14:13:58;13.85;;;6.45;;
17494;SDS011;8864;51.970;4.614;2022-12-01T14:19:23;14.55;;;6.85;;
17494;SDS011;8864;51.970;4.614;2022-12-01T14:21:53;12.82;;;6.28;;
17494;SDS011;8864;51.970;4.614;2022-12-01T14:24:22;11.05;;;5.95;;
17494;SDS011;8864;51.970;4.614;2022-12-01T14:26:51;13.02;;;6.28;;
17494;SDS011;8864;51.970;4.614;2022-12-01T14:29:24;10.65;;;5.63;;
17494;SDS011;8864;51.970;4.614;2022-12-01T14:34:53;12.23;;;5.93;;
17494;SDS011;8864;51.970;4.614;2022-12-01T14:37:26;12.88;;;5.97;;
17494;SDS011;8864;51.970;4.614;2022-12-01T14:40:03;12.75;;;5.88;;
17494;SDS011;8864;51.970;4.614;2022-12-01T14:42:34;11.10;;;5.95;;
17494;SDS011;8864;51.970;4.614;2022-12-01T14:45:21;10.98;;;5.78;;
17494;SDS011;8864;51.970;4.614;2022-12-01T14:47:55;14.27;;;6.22;;
17494;SDS011;8864;51.970;4.614;2022-12-01T14:50:29;11.57;;;6.03;;
17494;SDS011;8864;51.970;4.614;2022-12-01T14:53:03;12.32;;;6.28;;
17494;SDS011;8864;51.970;4.614;2022-12-01T14:55:36;11.65;;;6.07;;
17494;SDS011;8864;51.970;4.614;2022-12-01T14:58:05;9.75;;;4.97;;
17494;SDS011;8864;51.970;4.614;2022-12-01T15:00:37;12.50;;;6.28;;
17494;SDS011;8864;51.970;4.614;2022-12-01T15:03:20;10.80;;;5.38;;
17494;SDS011;8864;51.970;4.614;2022-12-01T15:05:50;10.95;;;5.85;;
17494;SDS011;8864;51.970;4.614;2022-12-01T15:08:19;12.70;;;6.05;;
17494;SDS011;8864;51.970;4.614;2022-12-01T15:10:49;11.85;;;5.80;;
17494;SDS011;8864;51.970;4.614;2022-12-01T15:13:20;14.52;;;6.13;;
17494;SDS011;8864;51.970;4.614;2022-12-01T15:15:52;11.10;;;5.85;;
17494;SDS011;8864;51.970;4.614;2022-12-01T15:18:21;10.57;;;6.00;;
17494;SDS011;8864;51.970;4.614;2022-12-01T15:20:54;10.02;;;5.80;;
17494;SDS011;8864;51.970;4.614;2022-12-01T15:23:24;10.30;;;5.50;;
17494;SDS011;8864;51.970;4.614;2022-12-01T15:25:53;10.73;;;5.65;;
17494;SDS011;8864;51.970;4.614;2022-12-01T15:28:21;11.85;;;6.03;;
17494;SDS011;8864;51.970;4.614;2022-12-01T15:30:55;11.75;;;5.72;;
17494;SDS011;8864;51.970;4.614;2022-12-01T15:33:25;10.57;;;5.45;;
17494;SDS011;8864;51.970;4.614;2022-12-01T15:35:56;11.07;;;5.80;;
17494;SDS011;8864;51.970;4.614;2022-12-01T15:38:26;10.35;;;5.45;;
17494;SDS011;8864;51.970;4.614;2022-12-01T15:40:54;10.25;;;5.63;;
17494;SDS011;8864;51.970;4.614;2022-12-01T15:43:23;9.32;;;5.63;;
17494;SDS011;8864;51.970;4.614;2022-12-01T15:45:58;9.57;;;5.38;;
17494;SDS011;8864;51.970;4.614;2022-12-01T15:48:28;11.65;;;5.88;;
17494;SDS011;8864;51.970;4.614;2022-12-01T15:50:59;10.35;;;5.57;;
17494;SDS011;8864;51.970;4.614;2022-12-01T15:53:30;10.30;;;5.60;;
17494;SDS011;8864;51.970;4.614;2022-12-01T15:56:00;11.18;;;5.40;;